createdAt,value
2022-11-24T00:01:30.113Z,97775.16
2022-11-24T00:04:01.986Z,97775.78
2022-11-24T00:06:30.494Z,97784.50
2022-11-24T00:08:58.011Z,97780.34
2022-11-24T00:11:27.562Z,97784.91
2022-11-24T00:13:54.213Z,97795.81
2022-11-24T00:16:23.522Z,97795.81
2022-11-24T00:18:52.389Z,97789.69
2022-11-24T00:21:20.458Z,97798.81
2022-11-24T00:23:47.949Z,97801.81
2022-11-24T00:26:23.316Z,97803.97
2022-11-24T00:28:51.393Z,97805.38
2022-11-24T00:31:32.414Z,97817.69
2022-11-24T00:34:01.322Z,97816.50
2022-11-24T00:36:30.700Z,97821.88
2022-11-24T00:39:00.197Z,97826.66
2022-11-24T00:41:27.794Z,97830.00
2022-11-24T00:43:54.566Z,97830.19
2022-11-24T00:46:21.601Z,97827.63
2022-11-24T00:48:48.464Z,97836.00
2022-11-24T00:51:16.846Z,97837.75
2022-11-24T00:53:43.842Z,97839.34
2022-11-24T00:56:11.136Z,97845.09
2022-11-24T00:58:38.481Z,97847.84
2022-11-24T01:01:14.620Z,97848.47
2022-11-24T01:03:42.150Z,97858.00
2022-11-24T01:06:23.695Z,97856.03
2022-11-24T01:08:50.788Z,97861.38
2022-11-24T01:11:21.718Z,97861.56
2022-11-24T01:13:52.234Z,97873.66
2022-11-24T01:16:24.761Z,97874.47
2022-11-24T01:18:51.790Z,97874.50
2022-11-24T01:21:19.113Z,97881.06
2022-11-24T01:23:45.894Z,97877.06
2022-11-24T01:26:15.532Z,97879.91
2022-11-24T01:28:46.572Z,97884.06
2022-11-24T01:31:15.093Z,97876.34
2022-11-24T01:33:42.195Z,97882.09
2022-11-24T01:36:08.731Z,97880.13
2022-11-24T01:38:35.171Z,97888.66
2022-11-24T01:41:28.018Z,97886.09
2022-11-24T01:43:55.824Z,97891.63
2022-11-24T01:46:45.812Z,97894.81
2022-11-24T01:49:17.932Z,97892.63
2022-11-24T01:51:53.101Z,97908.16
2022-11-24T01:54:36.471Z,97912.31
2022-11-24T01:57:29.563Z,97906.97
2022-11-24T02:00:04.682Z,97912.53
2022-11-24T02:02:31.284Z,97908.78
2022-11-24T02:05:03.091Z,97911.16
2022-11-24T02:07:30.674Z,97904.19
2022-11-24T02:10:04.602Z,97913.72
2022-11-24T02:12:31.545Z,97911.56
2022-11-24T02:14:59.193Z,97915.72
2022-11-24T02:17:25.609Z,97910.31
2022-11-24T02:19:57.826Z,97915.31
2022-11-24T02:23:01.376Z,97916.88
2022-11-24T02:25:58.530Z,97922.47
2022-11-24T02:28:29.959Z,97914.72
2022-11-24T02:30:58.715Z,97924.28
2022-11-24T02:33:25.927Z,97919.47
2022-11-24T02:35:53.185Z,97926.06
2022-11-24T02:38:28.614Z,97924.06
2022-11-24T02:40:55.049Z,97916.50
2022-11-24T02:43:23.455Z,97924.06
2022-11-24T02:45:50.092Z,97929.44
2022-11-24T02:48:17.847Z,97939.19
2022-11-24T02:50:44.266Z,97937.38
2022-11-24T02:53:10.805Z,97940.97
2022-11-24T02:55:37.254Z,97946.53
2022-11-24T02:58:03.725Z,97944.16
2022-11-24T03:00:30.430Z,97945.53
2022-11-24T03:02:57.271Z,97951.94
2022-11-24T03:05:24.097Z,97949.16
2022-11-24T03:07:50.614Z,97951.56
2022-11-24T03:10:17.157Z,97950.53
2022-11-24T03:12:43.685Z,97953.34
2022-11-24T03:15:10.588Z,97959.31
2022-11-24T03:17:37.173Z,97968.66
2022-11-24T03:20:05.193Z,97964.06
2022-11-24T03:22:32.022Z,97968.66
2022-11-24T03:24:59.172Z,97972.81
2022-11-24T03:27:25.739Z,97974.22
2022-11-24T03:29:52.157Z,97972.44
2022-11-24T03:32:18.660Z,97973.81
2022-11-24T03:34:45.109Z,97972.84
2022-11-24T03:37:11.913Z,97973.22
2022-11-24T03:39:38.592Z,97984.34
2022-11-24T03:42:05.447Z,97984.56
2022-11-24T03:44:32.101Z,97980.00
2022-11-24T03:46:58.774Z,97982.78
2022-11-24T03:49:25.231Z,97982.97
2022-11-24T03:51:51.653Z,97986.16
2022-11-24T03:54:18.192Z,97985.78
2022-11-24T03:56:44.704Z,97985.56
2022-11-24T03:59:11.261Z,97985.75
2022-11-24T04:01:37.819Z,97980.56
2022-11-24T04:04:04.710Z,97989.34
2022-11-24T04:06:31.178Z,97988.94
2022-11-24T04:08:57.646Z,97994.31
2022-11-24T04:11:42.817Z,98003.47
2022-11-24T04:14:13.600Z,98014.63
2022-11-24T04:16:40.838Z,98012.03
2022-11-24T04:19:07.385Z,98009.63
2022-11-24T04:21:33.806Z,98018.19
2022-11-24T04:24:00.444Z,98014.22
2022-11-24T04:26:27.534Z,98012.00
2022-11-24T04:28:54.213Z,98023.75
2022-11-24T04:31:20.748Z,98019.78
2022-11-24T04:33:47.314Z,98021.38
2022-11-24T04:36:13.741Z,98030.72
2022-11-24T04:39:23.332Z,98034.09
2022-11-24T04:41:26.568Z,98042.69
2022-11-24T04:43:53.014Z,98039.09
2022-11-24T04:46:19.820Z,98039.31
2022-11-24T04:48:46.312Z,98041.66
2022-11-24T04:51:14.042Z,98051.66
2022-11-24T04:53:40.506Z,98050.81
2022-11-24T04:56:07.528Z,98053.63
2022-11-24T04:58:34.176Z,98061.41
2022-11-24T05:01:00.666Z,98057.00
2022-11-24T05:03:27.310Z,98064.78
2022-11-24T05:05:53.763Z,98066.97
2022-11-24T05:08:20.431Z,98065.59
2022-11-24T05:10:46.847Z,98072.53
2022-11-24T05:13:13.629Z,98069.56
2022-11-24T05:15:41.854Z,98076.09
2022-11-24T05:18:12.627Z,98073.72
2022-11-24T05:20:39.082Z,98081.69
2022-11-24T05:23:07.512Z,98081.50
2022-11-24T05:25:35.095Z,98077.91
2022-11-24T05:28:09.767Z,98079.50
2022-11-24T05:30:38.736Z,98075.69
2022-11-24T05:33:12.095Z,98081.28
2022-11-24T05:35:38.587Z,98075.31
2022-11-24T05:38:05.248Z,98085.69
2022-11-24T05:40:32.035Z,98085.28
2022-11-24T05:42:59.309Z,98090.06
2022-11-24T05:45:25.778Z,98098.03
2022-11-24T05:47:53.106Z,98099.59
2022-11-24T05:50:21.789Z,98100.63
2022-11-24T05:52:49.185Z,98099.22
2022-11-24T05:55:16.117Z,98111.75
2022-11-24T05:57:42.657Z,98109.34
2022-11-24T06:00:10.252Z,98104.16
2022-11-24T06:02:38.499Z,98105.53
2022-11-24T06:05:05.398Z,98101.38
2022-11-24T06:07:32.101Z,98116.69
2022-11-24T06:09:58.752Z,98113.09
2022-11-24T06:12:25.502Z,98114.31
2022-11-24T06:14:52.266Z,98116.09
2022-11-24T06:17:18.913Z,98117.09
2022-11-24T06:19:48.047Z,98119.91
2022-11-24T06:22:21.935Z,98117.13
2022-11-24T06:24:50.819Z,98119.28
2022-11-24T06:27:18.221Z,98117.91
2022-11-24T06:29:45.209Z,98119.09
2022-11-24T06:32:11.959Z,98125.88
2022-11-24T06:34:38.796Z,98120.09
2022-11-24T06:37:05.736Z,98125.06
2022-11-24T06:39:32.510Z,98122.06
2022-11-24T06:41:59.378Z,98124.88
2022-11-24T06:44:26.688Z,98137.63
2022-11-24T06:46:53.437Z,98132.88
2022-11-24T06:49:20.143Z,98132.84
2022-11-24T06:51:46.982Z,98138.84
2022-11-24T06:54:19.877Z,98140.00
2022-11-24T06:56:46.735Z,98142.63
2022-11-24T06:59:18.872Z,98140.22
2022-11-24T07:01:46.949Z,98148.81
2022-11-24T07:04:14.846Z,98153.56
2022-11-24T07:06:42.411Z,98152.97
2022-11-24T07:09:10.686Z,98157.94
2022-11-24T07:11:37.757Z,98164.94
2022-11-24T07:14:05.393Z,98165.31
2022-11-24T07:16:32.620Z,98169.53
2022-11-24T07:19:00.075Z,98160.34
2022-11-24T07:21:28.996Z,98166.53
2022-11-24T07:23:57.119Z,98167.94
2022-11-24T07:26:25.011Z,98176.28
2022-11-24T07:28:52.121Z,98177.06
2022-11-24T07:31:21.244Z,98170.31
2022-11-24T07:33:56.370Z,98183.03
2022-11-24T07:36:24.079Z,98191.41
2022-11-24T07:38:51.099Z,98194.56
2022-11-24T07:41:19.791Z,98183.66
2022-11-24T07:43:47.181Z,98197.38
2022-11-24T07:46:16.588Z,98199.19
2022-11-24T07:48:43.486Z,98206.75
2022-11-24T07:51:12.563Z,98204.97
2022-11-24T07:53:39.730Z,98206.38
2022-11-24T07:56:07.263Z,98206.56
2022-11-24T07:58:36.824Z,98209.38
2022-11-24T08:01:15.238Z,98208.16
2022-11-24T08:03:43.253Z,98197.78
2022-11-24T08:08:58.270Z,98204.16
2022-11-24T08:11:25.578Z,98195.19
2022-11-24T08:13:55.342Z,98201.75
2022-11-24T08:16:22.218Z,98197.97
2022-11-24T08:18:51.423Z,98197.38
2022-11-24T08:21:18.426Z,98201.97
2022-11-24T08:23:47.848Z,98196.19
2022-11-24T08:26:18.961Z,98208.50
2022-11-24T08:28:46.854Z,98203.91
2022-11-24T08:31:16.462Z,98204.06
2022-11-24T08:33:43.238Z,98203.81
2022-11-24T08:36:15.252Z,98198.41
2022-11-24T08:38:42.348Z,98194.00
2022-11-24T08:41:12.079Z,98198.00
2022-11-24T08:43:54.941Z,98200.72
2022-11-24T08:46:22.370Z,98191.72
2022-11-24T08:48:55.478Z,98196.03
2022-11-24T08:51:25.069Z,98203.84
2022-11-24T08:54:15.337Z,98203.03
2022-11-24T08:56:57.224Z,98203.16
2022-11-24T08:59:24.128Z,98205.75
2022-11-24T09:01:55.352Z,98195.59
2022-11-24T09:04:22.092Z,98207.56
2022-11-24T09:06:49.265Z,98208.00
2022-11-24T09:09:23.057Z,98209.75
2022-11-24T09:11:49.994Z,98212.59
2022-11-24T09:14:16.782Z,98217.63
2022-11-24T09:16:43.781Z,98228.41
2022-11-24T09:19:10.734Z,98225.03
2022-11-24T09:21:38.961Z,98234.41
2022-11-24T09:24:10.394Z,98227.63
2022-11-24T09:26:43.113Z,98237.00
2022-11-24T09:29:13.746Z,98226.25
2022-11-24T09:31:40.775Z,98237.38
2022-11-24T09:34:12.535Z,98242.19
2022-11-24T09:36:39.115Z,98240.25
2022-11-24T09:39:05.965Z,98241.09
2022-11-24T09:41:57.566Z,98242.88
2022-11-24T09:44:55.079Z,98240.47
2022-11-24T09:47:40.487Z,98236.31
2022-11-24T09:50:27.960Z,98246.03
2022-11-24T09:53:06.876Z,98245.47
2022-11-24T09:55:47.340Z,98249.03
2022-11-24T09:58:52.877Z,98245.63
2022-11-24T10:01:41.582Z,98249.97
2022-11-24T10:04:24.914Z,98248.56
2022-11-24T10:07:00.549Z,98258.78
2022-11-24T10:10:05.038Z,98251.59
2022-11-24T10:13:18.792Z,98258.81
2022-11-24T10:16:00.907Z,98268.06
2022-11-24T10:18:42.674Z,98265.94
2022-11-24T10:21:31.203Z,98264.91
2022-11-24T10:24:19.860Z,98265.50
2022-11-24T10:26:56.858Z,98271.13
2022-11-24T10:29:30.079Z,98271.91
2022-11-24T10:32:03.835Z,98275.13
2022-11-24T10:34:46.791Z,98267.94
2022-11-24T10:37:43.304Z,98275.28
2022-11-24T10:40:26.906Z,98265.31
2022-11-24T10:43:05.308Z,98272.34
2022-11-24T10:45:32.178Z,98274.16
2022-11-24T10:48:00.364Z,98266.78
2022-11-24T10:50:35.763Z,98271.13
2022-11-24T10:53:13.094Z,98269.38
2022-11-24T10:55:55.109Z,98271.75
2022-11-24T10:58:26.778Z,98276.75
2022-11-24T11:00:55.072Z,98276.94
2022-11-24T11:03:33.034Z,98277.69
2022-11-24T11:06:15.909Z,98275.91
2022-11-24T11:08:42.772Z,98271.69
2022-11-24T11:11:21.493Z,98269.88
2022-11-24T11:14:01.610Z,98273.69
2022-11-24T11:16:50.881Z,98271.47
2022-11-24T11:19:50.388Z,98281.63
2022-11-24T11:22:55.802Z,98281.03
2022-11-24T11:25:28.208Z,98280.59
2022-11-24T11:28:18.275Z,98288.16
2022-11-24T11:31:16.361Z,98271.22
2022-11-24T11:34:21.828Z,98278.56
2022-11-24T11:36:54.873Z,98283.75
2022-11-24T11:39:49.016Z,98285.94
2022-11-24T11:43:00.648Z,98285.94
2022-11-24T11:45:56.555Z,98292.88
2022-11-24T11:48:40.674Z,98287.44
2022-11-24T11:51:28.219Z,98289.63
2022-11-24T11:54:10.257Z,98282.31
2022-11-24T11:56:45.479Z,98286.09
2022-11-24T11:59:32.858Z,98286.94
2022-11-24T12:02:47.277Z,98285.13
2022-11-24T12:05:47.609Z,98286.13
2022-11-24T12:08:20.481Z,98293.50
2022-11-24T12:11:08.013Z,98288.69
2022-11-24T12:13:56.164Z,98293.25
2022-11-24T12:16:45.502Z,98293.28
2022-11-24T12:19:30.871Z,98291.31
2022-11-24T12:22:15.705Z,98299.16
2022-11-24T12:25:03.441Z,98308.78
2022-11-24T12:28:00.015Z,98304.41
2022-11-24T12:30:36.013Z,98305.19
2022-11-24T12:33:25.507Z,98313.34
2022-11-24T12:36:03.639Z,98315.28
2022-11-24T12:38:54.680Z,98317.63
2022-11-24T12:41:42.876Z,98318.38
2022-11-24T12:44:36.804Z,98323.44
2022-11-24T12:47:25.958Z,98322.00
2022-11-24T12:49:55.735Z,98323.22
2022-11-24T12:52:29.935Z,98323.69
2022-11-24T12:54:57.244Z,98315.97
2022-11-24T12:57:41.864Z,98327.19
2022-11-24T13:00:20.696Z,98333.97
2022-11-24T13:02:56.893Z,98331.78
2022-11-24T13:05:58.856Z,98334.59
2022-11-24T13:08:27.813Z,98338.56
2022-11-24T13:10:57.178Z,98341.16
2022-11-24T13:13:30.042Z,98339.56
2022-11-24T13:19:19.383Z,98351.84
2022-11-24T13:21:59.646Z,98350.22
2022-11-24T13:24:37.785Z,98355.84
2022-11-24T13:27:27.021Z,98365.50
2022-11-24T13:29:54.420Z,98370.31
2022-11-24T13:32:21.321Z,98359.19
2022-11-24T13:34:55.253Z,98361.00
2022-11-24T13:37:33.911Z,98355.22
2022-11-24T13:40:29.930Z,98364.56
2022-11-24T13:43:37.046Z,98375.00
2022-11-24T13:46:12.885Z,98379.38
2022-11-24T13:48:52.106Z,98383.56
2022-11-24T13:51:43.619Z,98379.78
2022-11-24T13:54:24.338Z,98378.19
2022-11-24T13:57:40.720Z,98381.75
2022-11-24T14:00:27.914Z,98383.00
2022-11-24T14:04:32.564Z,98390.38
2022-11-24T14:07:28.166Z,98397.19
2022-11-24T14:10:02.300Z,98393.38
2022-11-24T14:12:51.211Z,98399.59
2022-11-24T14:15:29.516Z,98404.78
2022-11-24T14:18:21.681Z,98410.38
2022-11-24T14:20:48.586Z,98409.97
2022-11-24T14:23:15.439Z,98416.34
2022-11-24T14:29:26.019Z,98412.16
2022-11-24T14:31:55.190Z,98411.34
2022-11-24T14:34:23.829Z,98404.78
2022-11-24T14:36:54.800Z,98406.75
2022-11-24T14:39:23.910Z,98417.31
2022-11-24T14:41:58.904Z,98422.72
2022-11-24T14:44:32.644Z,98429.09
2022-11-24T14:47:08.361Z,98430.88
2022-11-24T14:50:05.924Z,98441.84
2022-11-24T14:52:33.379Z,98437.66
2022-11-24T14:55:21.449Z,98431.28
2022-11-24T14:57:48.538Z,98440.88
2022-11-24T15:00:29.800Z,98447.63
2022-11-24T15:03:02.212Z,98443.66
2022-11-24T15:06:01.130Z,98447.66
2022-11-24T15:08:36.720Z,98450.84
2022-11-24T15:11:21.239Z,98453.81
2022-11-24T15:13:54.806Z,98455.03
2022-11-24T15:16:25.131Z,98453.59
2022-11-24T15:19:02.255Z,98456.41
2022-11-24T15:21:34.129Z,98459.78
2022-11-24T15:24:16.224Z,98464.16
2022-11-24T15:26:46.679Z,98462.50
2022-11-24T15:29:14.161Z,98466.66
2022-11-24T15:31:44.218Z,98464.84
2022-11-24T15:34:17.679Z,98471.41
2022-11-24T15:36:44.821Z,98477.97
2022-11-24T15:39:21.523Z,98477.63
2022-11-24T15:41:48.559Z,98476.22
2022-11-24T15:44:17.862Z,98477.63
2022-11-24T15:46:48.098Z,98470.25
2022-11-24T15:49:16.342Z,98473.63
2022-11-24T15:51:45.703Z,98484.63
2022-11-24T16:02:44.389Z,98491.75
2022-11-24T16:06:05.355Z,98493.34
2022-11-24T16:08:42.290Z,98493.91
2022-11-24T16:11:15.054Z,98507.81
2022-11-24T16:13:45.663Z,98500.66
2022-11-24T16:16:18.322Z,98513.63
2022-11-24T16:18:45.545Z,98515.78
2022-11-24T16:21:12.794Z,98509.84
2022-11-24T16:23:42.858Z,98519.81
2022-11-24T16:26:12.956Z,98530.72
2022-11-24T16:28:40.900Z,98528.13
2022-11-24T16:31:10.147Z,98522.56
2022-11-24T16:33:40.796Z,98520.78
2022-11-24T16:36:17.910Z,98523.19
2022-11-24T16:39:00.752Z,98527.16
2022-11-24T16:41:32.207Z,98525.53
2022-11-24T16:44:03.152Z,98518.63
2022-11-24T16:46:30.298Z,98527.41
2022-11-24T16:49:01.112Z,98532.81
2022-11-24T16:51:34.653Z,98536.44
2022-11-24T16:54:03.826Z,98535.81
2022-11-24T16:56:31.773Z,98532.63
2022-11-24T16:59:01.780Z,98538.22
2022-11-24T17:01:30.226Z,98526.25
2022-11-24T17:04:11.064Z,98536.38
2022-11-24T17:07:01.633Z,98539.19
2022-11-24T17:10:11.409Z,98535.38
2022-11-24T17:12:41.295Z,98537.78
2022-11-24T17:15:33.435Z,98533.22
2022-11-24T17:21:02.032Z,98537.38
2022-11-24T17:23:38.524Z,98540.38
2022-11-24T17:26:08.128Z,98543.19
2022-11-24T17:28:36.037Z,98543.97
2022-11-24T17:31:28.633Z,98542.97
2022-11-24T17:34:00.815Z,98546.97
2022-11-24T17:36:31.035Z,98548.69
2022-11-24T17:39:05.916Z,98555.06
2022-11-24T17:41:35.474Z,98553.38
2022-11-24T17:44:06.636Z,98559.72
2022-11-24T17:46:33.820Z,98561.97
2022-11-24T17:49:43.448Z,98561.09
2022-11-24T17:52:24.241Z,98562.91
2022-11-24T18:14:12.806Z,98576.22
2022-11-24T18:16:42.788Z,98572.50
2022-11-24T18:19:23.178Z,98574.19
2022-11-24T18:22:36.597Z,98579.06
2022-11-24T18:25:12.071Z,98578.59
2022-11-24T18:27:57.100Z,98580.91
2022-11-24T18:30:28.892Z,98588.56
2022-11-24T18:34:01.165Z,98587.31
2022-11-24T18:36:40.059Z,98586.50
2022-11-24T18:39:10.199Z,98587.59
2022-11-24T18:41:52.225Z,98584.22
2022-11-24T18:44:19.790Z,98583.47
2022-11-24T18:46:54.195Z,98599.81
2022-11-24T18:49:23.445Z,98598.53
2022-11-24T18:51:56.185Z,98594.19
2022-11-24T18:54:35.742Z,98599.00
2022-11-24T18:57:31.003Z,98602.38
2022-11-24T18:59:58.651Z,98596.50
2022-11-24T19:02:25.630Z,98600.50
2022-11-24T19:04:52.711Z,98609.59
2022-11-24T19:07:22.665Z,98606.22
2022-11-24T19:11:24.932Z,98599.88
2022-11-24T19:12:45.746Z,98600.25
2022-11-24T19:15:16.096Z,98607.44
2022-11-24T19:17:47.398Z,98595.94
2022-11-24T19:20:14.659Z,98601.47
2022-11-24T19:23:07.977Z,98603.34
2022-11-24T19:25:34.916Z,98607.28
2022-11-24T19:28:01.916Z,98599.13
2022-11-24T19:30:37.064Z,98601.84
2022-11-24T19:36:15.881Z,98611.94
2022-11-24T19:39:22.816Z,98609.81
2022-11-24T19:42:53.516Z,98614.16
2022-11-24T19:46:15.339Z,98612.81
2022-11-24T19:58:15.229Z,98629.09
2022-11-24T20:00:50.773Z,98628.56
2022-11-24T20:10:14.112Z,98630.13
2022-11-24T20:12:49.196Z,98621.84
2022-11-24T20:15:29.490Z,98621.66
2022-11-24T20:18:10.225Z,98627.13
2022-11-24T20:20:45.517Z,98623.19
2022-11-24T20:23:17.889Z,98620.69
2022-11-24T20:30:12.294Z,98626.41
2022-11-24T20:42:20.977Z,98632.38
2022-11-24T20:45:17.018Z,98637.81
2022-11-24T20:48:03.287Z,98632.72
2022-11-24T20:50:33.482Z,98628.16
2022-11-24T20:53:11.910Z,98627.47
2022-11-24T21:16:54.164Z,98637.31
2022-11-24T21:27:01.268Z,98634.22
2022-11-24T21:29:42.072Z,98627.97
2022-11-24T21:34:06.056Z,98634.88
2022-11-24T21:40:50.288Z,98640.19
2022-11-24T21:43:17.507Z,98642.56
2022-11-24T21:45:44.722Z,98635.50
2022-11-24T21:48:12.002Z,98641.75
2022-11-24T21:50:38.916Z,98636.94
2022-11-24T21:53:05.967Z,98639.34
2022-11-24T21:55:32.734Z,98638.06
2022-11-24T21:58:00.832Z,98632.13
2022-11-24T22:00:27.659Z,98641.00
2022-11-24T22:02:54.883Z,98631.78
2022-11-24T22:05:21.655Z,98632.50
2022-11-24T22:07:50.384Z,98633.41
2022-11-24T22:10:17.528Z,98630.59
2022-11-24T22:12:44.555Z,98622.22
2022-11-24T22:15:13.761Z,98631.94
2022-11-24T22:17:41.192Z,98643.84
2022-11-24T22:20:08.779Z,98638.03
2022-11-24T22:22:35.807Z,98643.00
2022-11-24T22:25:03.181Z,98654.69
2022-11-24T22:27:30.109Z,98640.38
2022-11-24T22:30:00.285Z,98641.84
2022-11-24T22:32:31.026Z,98642.34
2022-11-24T22:35:00.578Z,98643.28
2022-11-24T22:37:27.812Z,98643.19
2022-11-24T22:39:57.217Z,98636.84
2022-11-24T22:42:23.924Z,98643.25
2022-11-24T22:52:35.552Z,98634.13
2022-11-24T22:55:06.524Z,98633.94
2022-11-24T22:57:33.489Z,98635.09
2022-11-24T23:00:03.686Z,98633.47
2022-11-24T23:02:30.422Z,98631.69
2022-11-24T23:04:57.397Z,98629.78
2022-11-24T23:07:24.331Z,98633.66
2022-11-24T23:09:51.336Z,98625.91
2022-11-24T23:12:18.542Z,98636.44
2022-11-24T23:14:45.366Z,98631.28
2022-11-24T23:17:12.384Z,98633.38
2022-11-24T23:19:39.366Z,98633.91
2022-11-24T23:22:06.470Z,98632.44
2022-11-24T23:24:37.893Z,98643.53
2022-11-24T23:27:05.640Z,98640.78
2022-11-24T23:29:34.938Z,98634.69
2022-11-24T23:32:01.879Z,98640.34
2022-11-24T23:34:28.709Z,98641.69
2022-11-24T23:36:55.498Z,98640.88
2022-11-24T23:39:22.325Z,98642.63
2022-11-24T23:41:49.240Z,98643.59
2022-11-24T23:44:16.115Z,98642.00
2022-11-24T23:46:45.291Z,98638.00
2022-11-24T23:49:12.472Z,98628.97
2022-11-24T23:51:42.206Z,98644.59
2022-11-24T23:54:09.921Z,98630.59
2022-11-24T23:56:40.140Z,98634.31
2022-11-24T23:59:06.909Z,98637.88
